createdAt,value
2019-05-05T00:01:34.435Z,6.70
2019-05-05T00:04:21.452Z,6.60
2019-05-05T00:06:50.757Z,6.50
2019-05-05T00:09:20.001Z,6.50
2019-05-05T00:11:57.455Z,6.40
2019-05-05T00:14:44.449Z,6.30
2019-05-05T00:17:19.488Z,6.30
2019-05-05T00:19:48.771Z,6.20
2019-05-05T00:22:18.054Z,6.20
2019-05-05T00:24:47.303Z,6.20
2019-05-05T00:27:16.661Z,6.10
2019-05-05T00:29:45.962Z,6.10
2019-05-05T00:32:15.513Z,6.00
2019-05-05T00:34:44.890Z,6.00
2019-05-05T00:37:15.153Z,6.00
2019-05-05T00:39:45.327Z,6.00
2019-05-05T00:42:15.543Z,6.00
2019-05-05T00:44:45.040Z,6.00
2019-05-05T00:47:34.344Z,6.00
2019-05-05T00:50:05.175Z,6.00
2019-05-05T00:52:35.194Z,6.00
2019-05-05T00:55:24.425Z,6.00
2019-05-05T00:57:54.776Z,5.90
2019-05-05T01:00:48.240Z,5.90
2019-05-05T01:03:19.576Z,5.90
2019-05-05T01:05:57.300Z,5.90
2019-05-05T01:08:28.424Z,5.90
2019-05-05T01:10:58.236Z,5.90
2019-05-05T01:13:27.533Z,5.90
2019-05-05T01:15:56.937Z,5.80
2019-05-05T01:18:26.284Z,5.80
2019-05-05T01:20:55.612Z,5.80
2019-05-05T01:23:24.933Z,5.70
2019-05-05T01:25:54.475Z,5.70
2019-05-05T01:28:24.914Z,5.60
2019-05-05T01:30:57.656Z,5.60
2019-05-05T01:33:34.372Z,5.50
2019-05-05T01:36:04.660Z,5.50
2019-05-05T01:38:44.645Z,5.50
2019-05-05T01:41:34.801Z,5.40
2019-05-05T01:44:05.587Z,5.40
2019-05-05T01:46:35.448Z,5.40
2019-05-05T01:49:05.495Z,5.40
2019-05-05T01:51:35.401Z,5.30
2019-05-05T01:54:05.394Z,5.30
2019-05-05T01:56:35.736Z,5.30
2019-05-05T01:59:05.324Z,5.30
2019-05-05T02:01:35.220Z,5.30
2019-05-05T02:04:05.488Z,5.30
2019-05-05T02:06:35.224Z,5.20
2019-05-05T02:09:05.718Z,5.10
2019-05-05T02:11:35.352Z,5.10
2019-05-05T02:14:05.213Z,5.00
2019-05-05T02:16:34.808Z,4.90
2019-05-05T02:19:05.097Z,4.90
2019-05-05T02:21:35.267Z,4.80
2019-05-05T02:24:05.425Z,4.70
2019-05-05T02:26:35.198Z,4.70
2019-05-05T02:29:14.224Z,4.70
2019-05-05T02:32:01.274Z,4.70
2019-05-05T02:34:35.881Z,4.60
2019-05-05T02:37:05.424Z,4.60
2019-05-05T02:39:38.118Z,4.60
2019-05-05T02:42:06.169Z,4.70
2019-05-05T02:44:37.020Z,4.70
2019-05-05T02:47:31.003Z,4.70
2019-05-05T02:50:05.226Z,4.70
2019-05-05T02:52:35.875Z,4.60
2019-05-05T02:55:05.695Z,4.60
2019-05-05T02:57:35.751Z,4.60
2019-05-05T03:00:28.210Z,4.60
2019-05-05T03:02:58.861Z,4.60
2019-05-05T03:05:28.606Z,4.50
2019-05-05T03:07:58.875Z,4.50
2019-05-05T03:10:30.135Z,4.40
2019-05-05T03:13:01.347Z,4.30
2019-05-05T03:16:05.063Z,4.30
2019-05-05T03:18:34.534Z,4.30
2019-05-05T03:21:07.184Z,4.30
2019-05-05T03:23:34.979Z,4.30
2019-05-05T03:26:04.499Z,4.20
2019-05-05T03:28:43.948Z,4.20
2019-05-05T03:31:16.028Z,4.20
2019-05-05T03:33:46.060Z,4.10
2019-05-05T03:36:15.622Z,4.10
2019-05-05T03:38:45.993Z,4.20
2019-05-05T03:41:24.874Z,4.20
2019-05-05T03:44:19.478Z,4.20
2019-05-05T03:46:49.217Z,4.20
2019-05-05T03:49:19.301Z,4.30
2019-05-05T03:51:48.658Z,4.40
2019-05-05T03:54:18.439Z,4.40
2019-05-05T03:56:49.569Z,4.40
2019-05-05T03:59:19.313Z,4.50
2019-05-05T04:01:54.676Z,4.50
2019-05-05T04:04:37.178Z,4.60
2019-05-05T04:07:06.922Z,4.60
2019-05-05T04:09:36.261Z,4.70
2019-05-05T04:12:05.646Z,4.70
2019-05-05T04:14:35.018Z,4.70
2019-05-05T04:17:35.925Z,4.80
2019-05-05T04:20:24.465Z,4.70
2019-05-05T04:22:54.600Z,4.70
2019-05-05T04:25:24.729Z,4.80
2019-05-05T04:27:54.085Z,4.80
2019-05-05T04:30:23.766Z,4.80
2019-05-05T04:32:54.589Z,4.80
2019-05-05T04:35:24.610Z,4.80
2019-05-05T04:37:54.411Z,4.80
2019-05-05T04:40:24.166Z,4.80
2019-05-05T04:42:54.685Z,4.80
2019-05-05T04:45:24.319Z,4.80
2019-05-05T04:47:57.922Z,4.90
2019-05-05T04:50:55.497Z,4.90
2019-05-05T04:53:36.349Z,5.00
2019-05-05T04:56:05.641Z,5.00
2019-05-05T04:58:35.016Z,5.00
2019-05-05T05:01:04.731Z,5.00
2019-05-05T05:03:43.856Z,5.00
2019-05-05T05:06:19.090Z,5.10
2019-05-05T05:08:48.375Z,5.10
2019-05-05T05:11:17.660Z,5.10
2019-05-05T05:13:46.944Z,5.20
2019-05-05T05:16:16.291Z,5.20
2019-05-05T05:18:45.536Z,5.20
2019-05-05T05:21:14.908Z,5.20
2019-05-05T05:23:44.551Z,5.20
2019-05-05T05:26:14.051Z,5.30
2019-05-05T05:28:44.803Z,5.30
2019-05-05T05:31:14.276Z,5.40
2019-05-05T05:33:43.761Z,5.40
2019-05-05T05:36:14.435Z,5.50
2019-05-05T05:38:45.497Z,5.50
2019-05-05T05:41:16.815Z,5.60
2019-05-05T05:43:56.164Z,5.70
2019-05-05T05:46:54.590Z,5.80
2019-05-05T05:49:37.112Z,5.90
2019-05-05T05:52:16.289Z,6.00
2019-05-05T05:54:37.323Z,6.00
2019-05-05T05:57:06.626Z,6.10
2019-05-05T05:59:35.980Z,6.20
2019-05-05T06:02:12.237Z,6.20
2019-05-05T06:04:36.227Z,6.30
2019-05-05T06:07:05.489Z,6.50
2019-05-05T06:09:34.776Z,6.60
2019-05-05T06:12:04.112Z,6.70
2019-05-05T06:14:34.155Z,6.70
2019-05-05T06:17:04.232Z,6.70
2019-05-05T06:19:33.929Z,6.70
2019-05-05T06:22:03.611Z,6.80
2019-05-05T06:24:34.590Z,6.80
2019-05-05T06:27:04.067Z,6.70
2019-05-05T06:29:34.481Z,6.80
2019-05-05T06:32:04.140Z,6.90
2019-05-05T06:34:33.864Z,6.90
2019-05-05T06:37:04.203Z,6.90
2019-05-05T06:39:33.784Z,6.90
2019-05-05T06:42:27.887Z,6.90
2019-05-05T06:45:05.122Z,7.00
2019-05-05T06:47:38.602Z,7.10
2019-05-05T06:50:08.108Z,7.20
2019-05-05T06:52:44.248Z,7.30
2019-05-05T06:55:08.536Z,7.30
2019-05-05T06:57:38.011Z,7.30
2019-05-05T07:00:07.582Z,7.30
2019-05-05T07:02:36.903Z,7.40
2019-05-05T07:05:06.259Z,7.50
2019-05-05T07:07:35.550Z,7.60
2019-05-05T07:10:05.139Z,7.60
2019-05-05T07:12:34.802Z,7.70
2019-05-05T07:15:04.604Z,7.70
2019-05-05T07:17:33.995Z,7.80
2019-05-05T07:20:04.374Z,7.80
2019-05-05T07:22:34.664Z,7.80
2019-05-05T07:25:04.791Z,7.70
2019-05-05T07:27:34.230Z,7.60
2019-05-05T07:30:04.766Z,7.60
2019-05-05T07:32:34.191Z,7.50
2019-05-05T07:35:18.382Z,7.50
2019-05-05T07:37:47.659Z,7.50
2019-05-05T07:40:16.914Z,7.50
2019-05-05T07:42:46.202Z,7.50
2019-05-05T07:45:22.411Z,7.50
2019-05-05T07:47:47.554Z,7.50
2019-05-05T07:50:28.568Z,7.50
2019-05-05T07:52:48.130Z,7.60
2019-05-05T07:55:17.418Z,7.60
2019-05-05T07:57:46.727Z,7.60
2019-05-05T08:00:16.098Z,7.70
2019-05-05T08:02:45.408Z,7.80
2019-05-05T08:05:14.802Z,7.80
2019-05-05T08:07:44.644Z,7.80
2019-05-05T08:10:14.172Z,7.90
2019-05-05T08:12:43.752Z,7.90
2019-05-05T08:15:14.847Z,8.00
2019-05-05T08:17:57.021Z,8.00
2019-05-05T08:20:33.885Z,8.00
2019-05-05T08:23:04.280Z,8.00
2019-05-05T08:25:58.817Z,8.00
2019-05-05T08:29:05.510Z,8.00
2019-05-05T08:31:53.677Z,8.10
2019-05-05T08:34:24.450Z,8.10
2019-05-05T08:36:53.937Z,8.10
2019-05-05T08:39:24.510Z,8.20
2019-05-05T08:41:53.970Z,8.20
2019-05-05T08:44:23.709Z,8.20
2019-05-05T08:46:53.778Z,8.30
2019-05-05T08:49:24.416Z,8.30
2019-05-05T08:51:54.726Z,8.30
2019-05-05T08:54:24.215Z,8.40
2019-05-05T08:56:54.923Z,8.40
2019-05-05T08:59:24.541Z,8.40
2019-05-05T09:01:54.242Z,8.50
2019-05-05T09:04:24.701Z,8.50
2019-05-05T09:06:54.385Z,8.50
2019-05-05T09:09:24.232Z,8.60
2019-05-05T09:11:54.190Z,8.70
2019-05-05T09:14:24.049Z,8.70
2019-05-05T09:16:53.841Z,8.70
2019-05-05T09:19:23.996Z,8.70
2019-05-05T09:21:54.124Z,8.80
2019-05-05T09:24:45.629Z,8.80
2019-05-05T09:27:34.017Z,8.90
2019-05-05T09:30:04.109Z,8.90
2019-05-05T09:32:34.396Z,9.00
2019-05-05T09:35:04.787Z,9.10
2019-05-05T09:37:34.228Z,9.10
2019-05-05T09:40:04.522Z,9.20
2019-05-05T09:42:34.260Z,9.20
2019-05-05T09:45:04.798Z,9.30
2019-05-05T09:47:34.468Z,9.40
2019-05-05T09:50:03.965Z,9.40
2019-05-05T09:52:33.839Z,9.50
2019-05-05T09:55:04.027Z,9.60
2019-05-05T09:57:34.428Z,9.60
2019-05-05T10:00:10.649Z,9.70
2019-05-05T10:02:40.011Z,9.70
2019-05-05T10:05:09.855Z,9.80
2019-05-05T10:07:39.095Z,9.90
2019-05-05T10:10:09.180Z,10.00
2019-05-05T10:12:38.439Z,10.00
2019-05-05T10:15:08.027Z,10.10
2019-05-05T10:17:37.291Z,10.20
2019-05-05T10:20:06.633Z,10.30
2019-05-05T10:22:35.999Z,10.40
2019-05-05T10:25:23.897Z,10.40
2019-05-05T10:27:54.017Z,10.50
2019-05-05T10:30:23.922Z,10.50
2019-05-05T10:32:54.539Z,10.60
2019-05-05T10:35:24.183Z,10.80
2019-05-05T10:37:54.489Z,10.90
2019-05-05T10:40:27.810Z,11.00
2019-05-05T10:42:57.192Z,11.10
2019-05-05T10:45:26.839Z,11.20
2019-05-05T10:47:56.136Z,11.20
2019-05-05T10:50:25.424Z,11.20
2019-05-05T10:52:54.907Z,11.30
2019-05-05T10:55:24.202Z,11.50
2019-05-05T10:57:54.462Z,11.60
2019-05-05T11:00:44.562Z,11.80
2019-05-05T11:03:15.100Z,12.00
2019-05-05T11:05:45.202Z,12.00
2019-05-05T11:08:14.922Z,11.90
2019-05-05T11:10:45.036Z,12.00
2019-05-05T11:13:14.574Z,12.30
2019-05-05T11:15:44.528Z,12.60
2019-05-05T11:18:14.961Z,12.70
2019-05-05T11:20:44.934Z,12.70
2019-05-05T11:23:15.119Z,12.60
2019-05-05T11:25:44.711Z,12.60
2019-05-05T11:28:14.006Z,12.70
2019-05-05T11:30:44.485Z,13.00
2019-05-05T11:33:24.194Z,13.50
2019-05-05T11:36:06.990Z,14.30
2019-05-05T11:38:36.378Z,15.20
2019-05-05T11:41:05.689Z,15.20
2019-05-05T11:43:35.059Z,15.30
2019-05-05T11:46:04.330Z,15.80
2019-05-05T11:48:34.455Z,16.40
2019-05-05T11:51:04.480Z,16.60
2019-05-05T11:53:34.175Z,16.50
2019-05-05T11:56:04.233Z,16.00
2019-05-05T11:58:34.053Z,15.30
2019-05-05T12:01:03.831Z,14.60
2019-05-05T12:03:34.039Z,14.90
2019-05-05T12:06:04.024Z,15.70
2019-05-05T12:08:34.509Z,16.60
2019-05-05T12:11:05.809Z,17.40
2019-05-05T12:13:35.065Z,17.40
2019-05-05T12:16:09.193Z,16.90
2019-05-05T12:18:38.693Z,16.30
2019-05-05T12:21:08.085Z,15.70
2019-05-05T12:23:37.388Z,15.30
2019-05-05T12:26:31.545Z,14.90
2019-05-05T12:29:29.637Z,14.60
2019-05-05T12:31:59.029Z,14.30
2019-05-05T12:34:28.393Z,14.00
2019-05-05T12:36:57.767Z,13.90
2019-05-05T12:39:27.155Z,13.70
2019-05-05T12:41:56.407Z,13.60
2019-05-05T12:44:30.754Z,13.50
2019-05-05T12:47:11.127Z,13.50
2019-05-05T12:49:40.467Z,13.50
2019-05-05T12:52:09.803Z,14.00
2019-05-05T12:54:39.132Z,15.20
2019-05-05T12:57:08.500Z,16.50
2019-05-05T12:59:37.790Z,17.50
2019-05-05T13:02:07.756Z,17.50
2019-05-05T13:04:37.101Z,17.40
2019-05-05T13:07:08.264Z,17.40
2019-05-05T13:09:37.360Z,17.20
2019-05-05T13:12:06.723Z,17.40
2019-05-05T13:14:36.015Z,17.60
2019-05-05T13:17:05.331Z,18.00
2019-05-05T13:19:40.879Z,18.70
2019-05-05T13:22:41.211Z,19.60
2019-05-05T13:25:26.810Z,20.60
2019-05-05T13:27:57.415Z,21.50
2019-05-05T13:30:26.951Z,22.10
2019-05-05T13:32:56.242Z,21.80
2019-05-05T13:35:25.531Z,21.10
2019-05-05T13:37:55.027Z,20.60
2019-05-05T13:40:24.414Z,20.80
2019-05-05T13:42:54.673Z,21.10
2019-05-05T13:45:43.580Z,21.20
2019-05-05T13:48:14.079Z,21.30
2019-05-05T13:50:48.640Z,21.40
2019-05-05T13:53:17.922Z,21.80
2019-05-05T13:55:47.170Z,22.40
2019-05-05T13:58:16.556Z,23.00
2019-05-05T14:00:45.911Z,22.90
2019-05-05T14:03:15.158Z,22.20
2019-05-05T14:05:44.486Z,21.40
2019-05-05T14:08:14.678Z,21.30
2019-05-05T14:10:44.146Z,21.50
2019-05-05T14:13:15.237Z,21.90
2019-05-05T14:15:44.671Z,22.30
2019-05-05T14:18:14.364Z,22.00
2019-05-05T14:20:43.758Z,21.10
2019-05-05T14:23:14.794Z,20.20
2019-05-05T14:25:44.094Z,19.30
2019-05-05T14:28:14.131Z,18.60
2019-05-05T14:30:54.177Z,17.90
2019-05-05T14:33:26.550Z,17.50
2019-05-05T14:36:14.894Z,17.10
2019-05-05T14:38:49.491Z,16.90
2019-05-05T14:41:18.342Z,16.80
2019-05-05T14:43:47.609Z,17.00
2019-05-05T14:46:16.965Z,17.40
2019-05-05T14:48:46.273Z,17.60
2019-05-05T14:51:15.675Z,17.50
2019-05-05T14:53:45.033Z,17.40
2019-05-05T14:56:14.329Z,17.10
2019-05-05T14:58:43.879Z,16.80
2019-05-05T15:01:14.391Z,16.50
2019-05-05T15:03:44.502Z,16.40
2019-05-05T15:06:23.923Z,16.30
2019-05-05T15:09:13.911Z,16.20
2019-05-05T15:11:54.701Z,16.20
2019-05-05T15:14:24.461Z,16.30
2019-05-05T15:16:54.307Z,16.30
2019-05-05T15:19:23.959Z,16.30
2019-05-05T15:21:53.681Z,16.50
2019-05-05T15:24:24.499Z,17.10
2019-05-05T15:26:54.983Z,17.70
2019-05-05T15:29:25.154Z,18.30
2019-05-05T15:31:54.848Z,18.70
2019-05-05T15:34:24.208Z,19.00
2019-05-05T15:36:54.684Z,19.00
2019-05-05T15:39:24.634Z,19.00
2019-05-05T15:41:54.338Z,19.10
2019-05-05T15:44:24.167Z,19.20
2019-05-05T15:46:57.273Z,19.20
2019-05-05T15:49:24.618Z,19.20
2019-05-05T15:51:54.102Z,19.10
2019-05-05T15:54:23.720Z,19.00
2019-05-05T15:57:04.857Z,19.00
2019-05-05T15:59:24.090Z,19.10
2019-05-05T16:01:54.916Z,19.30
2019-05-05T16:04:24.508Z,19.60
2019-05-05T16:06:54.198Z,19.80
2019-05-05T16:09:23.669Z,20.00
2019-05-05T16:11:54.569Z,20.20
2019-05-05T16:14:24.585Z,20.20
2019-05-05T16:17:16.004Z,19.70
2019-05-05T16:19:57.296Z,19.00
2019-05-05T16:22:39.204Z,18.30
2019-05-05T16:25:14.051Z,17.80
2019-05-05T16:27:44.688Z,17.50
2019-05-05T16:30:15.309Z,17.20
2019-05-05T16:32:44.592Z,16.90
2019-05-05T16:35:14.588Z,16.80
2019-05-05T16:37:44.187Z,16.60
2019-05-05T16:40:14.442Z,16.40
2019-05-05T16:42:43.912Z,16.30
2019-05-05T16:45:16.416Z,16.20
2019-05-05T16:47:46.035Z,16.10
2019-05-05T16:50:16.376Z,16.10
2019-05-05T16:52:54.635Z,16.50
2019-05-05T16:55:53.846Z,16.90
2019-05-05T16:58:24.044Z,17.00
2019-05-05T17:00:54.392Z,17.20
2019-05-05T17:03:24.029Z,17.20
2019-05-05T17:05:54.623Z,17.00
2019-05-05T17:08:24.743Z,16.90
2019-05-05T17:10:54.115Z,16.70
2019-05-05T17:13:41.247Z,16.60
2019-05-05T17:16:35.011Z,16.70
2019-05-05T17:19:16.654Z,16.80
2019-05-05T17:22:04.038Z,17.10
2019-05-05T17:24:34.479Z,17.20
2019-05-05T17:27:03.951Z,17.40
2019-05-05T17:29:34.501Z,17.50
2019-05-05T17:32:03.922Z,17.50
2019-05-05T17:34:34.069Z,17.50
2019-05-05T17:37:04.295Z,17.30
2019-05-05T17:39:36.618Z,17.20
2019-05-05T17:42:30.936Z,17.10
2019-05-05T17:45:16.547Z,17.00
2019-05-05T17:47:50.595Z,16.90
2019-05-05T17:50:38.930Z,16.70
2019-05-05T17:53:39.078Z,16.60
2019-05-05T17:56:10.262Z,16.30
2019-05-05T17:58:39.642Z,16.00
2019-05-05T18:01:09.010Z,15.80
2019-05-05T18:03:38.302Z,15.50
2019-05-05T18:06:23.660Z,15.20
2019-05-05T18:09:13.978Z,15.00
2019-05-05T18:12:20.252Z,14.80
2019-05-05T18:14:50.006Z,14.60
2019-05-05T18:17:19.352Z,14.40
2019-05-05T18:19:48.624Z,14.20
2019-05-05T18:22:17.966Z,14.00
2019-05-05T18:24:47.281Z,13.90
2019-05-05T18:27:16.650Z,13.70
2019-05-05T18:29:46.022Z,13.60
2019-05-05T18:32:15.406Z,13.50
2019-05-05T18:34:44.658Z,13.30
2019-05-05T18:37:14.523Z,13.20
2019-05-05T18:39:44.052Z,13.10
2019-05-05T18:42:20.000Z,13.00
2019-05-05T18:44:53.918Z,12.90
2019-05-05T18:47:25.190Z,12.80
2019-05-05T18:49:54.123Z,12.60
2019-05-05T18:52:24.580Z,12.50
2019-05-05T18:54:54.566Z,12.40
2019-05-05T18:57:24.658Z,12.40
2019-05-05T18:59:54.424Z,12.20
2019-05-05T19:02:48.734Z,12.20
2019-05-05T19:05:45.941Z,12.20
2019-05-05T19:08:24.550Z,12.10
2019-05-05T19:10:54.259Z,12.00
2019-05-05T19:13:24.484Z,11.90
2019-05-05T19:15:53.975Z,11.80
2019-05-05T19:18:24.541Z,11.70
2019-05-05T19:21:16.046Z,11.60
2019-05-05T19:23:45.445Z,11.50
2019-05-05T19:26:14.721Z,11.40
2019-05-05T19:28:49.739Z,11.30
2019-05-05T19:31:14.989Z,11.20
2019-05-05T19:33:44.636Z,11.10
2019-05-05T19:36:14.301Z,11.00
2019-05-05T19:38:44.162Z,10.90
2019-05-05T19:41:14.417Z,10.70
2019-05-05T19:43:54.679Z,10.60
2019-05-05T19:46:29.064Z,10.50
2019-05-05T19:49:16.196Z,10.40
2019-05-05T19:51:45.847Z,10.40
2019-05-05T19:54:15.180Z,10.40
2019-05-05T19:56:44.829Z,10.40
2019-05-05T19:59:14.390Z,10.30
2019-05-05T20:01:45.024Z,10.30
2019-05-05T20:04:14.808Z,10.20
2019-05-05T20:06:44.411Z,10.10
2019-05-05T20:09:14.348Z,10.10
2019-05-05T20:11:44.083Z,10.00
2019-05-05T20:14:15.092Z,10.00
2019-05-05T20:17:04.291Z,9.90
2019-05-05T20:19:44.099Z,9.90
2019-05-05T20:22:14.635Z,9.80
2019-05-05T20:24:44.500Z,9.80
2019-05-05T20:27:14.176Z,9.70
2019-05-05T20:29:43.744Z,9.70
2019-05-05T20:32:13.913Z,9.60
2019-05-05T20:35:17.660Z,9.70
2019-05-05T20:37:50.745Z,9.70
2019-05-05T20:40:24.338Z,9.60
2019-05-05T20:42:54.255Z,9.50
2019-05-05T20:45:26.438Z,9.50
2019-05-05T20:47:55.695Z,9.40
2019-05-05T20:50:24.996Z,9.30
2019-05-05T20:52:54.315Z,9.20
2019-05-05T20:55:25.768Z,9.20
2019-05-05T20:57:54.825Z,9.10
2019-05-05T21:00:24.148Z,9.00
2019-05-05T21:02:53.895Z,9.00
2019-05-05T21:05:24.214Z,9.00
2019-05-05T21:07:53.568Z,8.90
2019-05-05T21:10:24.126Z,8.90
2019-05-05T21:12:54.366Z,8.90
2019-05-05T21:15:24.711Z,8.80
2019-05-05T21:17:54.334Z,8.80
2019-05-05T21:20:24.181Z,8.70
2019-05-05T21:23:14.364Z,8.60
2019-05-05T21:25:47.139Z,8.50
2019-05-05T21:28:16.487Z,8.50
2019-05-05T21:30:45.871Z,8.40
2019-05-05T21:33:15.130Z,8.40
2019-05-05T21:35:44.408Z,8.40
2019-05-05T21:38:14.225Z,8.40
2019-05-05T21:40:44.082Z,8.30
2019-05-05T21:43:15.378Z,8.30
2019-05-05T21:45:44.572Z,8.30
2019-05-05T21:48:14.026Z,8.30
2019-05-05T21:50:48.782Z,8.30
2019-05-05T21:53:30.938Z,8.20
2019-05-05T21:56:18.139Z,8.20
2019-05-05T21:58:47.544Z,8.10
2019-05-05T22:01:18.742Z,8.10
2019-05-05T22:03:48.154Z,8.10
2019-05-05T22:06:17.443Z,8.10
2019-05-05T22:08:46.718Z,8.10
2019-05-05T22:11:16.026Z,8.10
2019-05-05T22:13:45.399Z,8.10
2019-05-05T22:16:14.742Z,8.10
2019-05-05T22:18:44.687Z,8.00
2019-05-05T22:21:21.235Z,7.90
2019-05-05T22:24:08.336Z,7.80
2019-05-05T22:26:37.702Z,7.70
2019-05-05T22:29:07.098Z,7.70
2019-05-05T22:31:36.463Z,7.60
2019-05-05T22:34:05.814Z,7.60
2019-05-05T22:36:35.146Z,7.50
2019-05-05T22:39:05.450Z,7.50
2019-05-05T22:41:34.794Z,7.50
2019-05-05T22:44:04.525Z,7.50
2019-05-05T22:46:34.741Z,7.40
2019-05-05T22:49:04.349Z,7.30
2019-05-05T22:51:33.870Z,7.30
2019-05-05T22:54:03.925Z,7.20
2019-05-05T22:56:33.724Z,7.10
2019-05-05T22:59:04.297Z,7.10
2019-05-05T23:01:33.833Z,7.10
2019-05-05T23:04:14.502Z,7.00
2019-05-05T23:06:44.445Z,7.00
2019-05-05T23:09:14.765Z,7.00
2019-05-05T23:11:44.151Z,7.00
2019-05-05T23:14:28.603Z,6.90
2019-05-05T23:17:07.117Z,6.90
2019-05-05T23:20:13.455Z,6.90
2019-05-05T23:22:51.037Z,6.80
2019-05-05T23:25:28.393Z,6.80
2019-05-05T23:27:57.670Z,6.90
2019-05-05T23:30:38.715Z,6.90
2019-05-05T23:32:57.930Z,6.90
2019-05-05T23:35:27.169Z,6.90
2019-05-05T23:37:56.544Z,6.90
2019-05-05T23:40:26.955Z,6.80
2019-05-05T23:42:56.201Z,6.80
2019-05-05T23:45:25.488Z,6.80
2019-05-05T23:47:54.909Z,6.70
2019-05-05T23:50:24.271Z,6.70
2019-05-05T23:52:54.598Z,6.70
2019-05-05T23:55:24.296Z,6.60
2019-05-05T23:57:54.621Z,6.60
